sensor_id;sensor_type;location;lat;lon;timestamp;P1;durP1;ratioP1;P2;durP2;ratioP2
27740;SDS011;15134;48.768;9.184;2023-11-21T00:00:31;869.53;;;747.23;;
27740;SDS011;15134;48.768;9.184;2023-11-21T00:02:56;871.63;;;756.33;;
27740;SDS011;15134;48.768;9.184;2023-11-21T00:05:22;869.83;;;749.20;;
27740;SDS011;15134;48.768;9.184;2023-11-21T00:07:48;872.75;;;756.58;;
27740;SDS011;15134;48.768;9.184;2023-11-21T00:10:14;869.28;;;751.53;;
27740;SDS011;15134;48.768;9.184;2023-11-21T00:12:41;874.55;;;760.35;;
27740;SDS011;15134;48.768;9.184;2023-11-21T00:15:07;870.33;;;752.40;;
27740;SDS011;15134;48.768;9.184;2023-11-21T00:17:36;869.37;;;754.07;;
27740;SDS011;15134;48.768;9.184;2023-11-21T00:20:06;873.72;;;762.63;;
27740;SDS011;15134;48.768;9.184;2023-11-21T00:22:35;869.93;;;752.40;;
27740;SDS011;15134;48.768;9.184;2023-11-21T00:25:01;872.92;;;758.15;;
27740;SDS011;15134;48.768;9.184;2023-11-21T00:27:29;878.80;;;756.45;;
27740;SDS011;15134;48.768;9.184;2023-11-21T00:29:55;872.97;;;756.58;;
27740;SDS011;15134;48.768;9.184;2023-11-21T00:32:20;869.93;;;747.40;;
27740;SDS011;15134;48.768;9.184;2023-11-21T00:34:46;871.97;;;755.57;;
27740;SDS011;15134;48.768;9.184;2023-11-21T00:37:12;870.53;;;755.67;;
27740;SDS011;15134;48.768;9.184;2023-11-21T00:39:38;871.53;;;751.05;;
27740;SDS011;15134;48.768;9.184;2023-11-21T00:42:05;872.03;;;754.05;;
27740;SDS011;15134;48.768;9.184;2023-11-21T00:44:31;869.17;;;748.87;;
27740;SDS011;15134;48.768;9.184;2023-11-21T00:46:57;867.50;;;747.28;;
27740;SDS011;15134;48.768;9.184;2023-11-21T00:49:22;871.58;;;751.83;;
27740;SDS011;15134;48.768;9.184;2023-11-21T00:51:48;867.65;;;745.10;;
27740;SDS011;15134;48.768;9.184;2023-11-21T00:54:14;868.10;;;748.70;;
27740;SDS011;15134;48.768;9.184;2023-11-21T00:56:42;868.42;;;747.88;;
27740;SDS011;15134;48.768;9.184;2023-11-21T00:59:08;868.05;;;748.03;;
27740;SDS011;15134;48.768;9.184;2023-11-21T01:01:34;873.00;;;755.53;;
27740;SDS011;15134;48.768;9.184;2023-11-21T01:03:59;869.80;;;749.03;;
27740;SDS011;15134;48.768;9.184;2023-11-21T01:06:25;870.70;;;748.20;;
27740;SDS011;15134;48.768;9.184;2023-11-21T01:08:51;867.88;;;750.72;;
27740;SDS011;15134;48.768;9.184;2023-11-21T01:11:17;869.00;;;747.13;;
27740;SDS011;15134;48.768;9.184;2023-11-21T01:13:43;865.63;;;744.80;;
27740;SDS011;15134;48.768;9.184;2023-11-21T01:16:10;868.65;;;748.08;;
27740;SDS011;15134;48.768;9.184;2023-11-21T01:18:35;868.60;;;752.30;;
27740;SDS011;15134;48.768;9.184;2023-11-21T01:21:02;871.08;;;752.70;;
27740;SDS011;15134;48.768;9.184;2023-11-21T01:23:28;872.88;;;758.72;;
27740;SDS011;15134;48.768;9.184;2023-11-21T01:25:55;874.40;;;766.90;;
27740;SDS011;15134;48.768;9.184;2023-11-21T01:28:21;871.08;;;757.67;;
27740;SDS011;15134;48.768;9.184;2023-11-21T01:30:47;868.20;;;756.95;;
27740;SDS011;15134;48.768;9.184;2023-11-21T01:33:14;870.50;;;752.90;;
27740;SDS011;15134;48.768;9.184;2023-11-21T01:35:41;871.75;;;749.25;;
27740;SDS011;15134;48.768;9.184;2023-11-21T01:38:07;869.83;;;755.50;;
27740;SDS011;15134;48.768;9.184;2023-11-21T01:40:33;872.60;;;758.85;;
27740;SDS011;15134;48.768;9.184;2023-11-21T01:43:00;869.63;;;755.90;;
27740;SDS011;15134;48.768;9.184;2023-11-21T01:45:28;872.90;;;760.85;;
27740;SDS011;15134;48.768;9.184;2023-11-21T01:47:56;871.10;;;759.40;;
27740;SDS011;15134;48.768;9.184;2023-11-21T01:50:23;869.80;;;756.65;;
27740;SDS011;15134;48.768;9.184;2023-11-21T01:52:50;869.53;;;757.97;;
27740;SDS011;15134;48.768;9.184;2023-11-21T01:55:17;873.22;;;764.13;;
27740;SDS011;15134;48.768;9.184;2023-11-21T01:57:45;872.93;;;764.13;;
27740;SDS011;15134;48.768;9.184;2023-11-21T02:00:12;871.45;;;759.42;;
27740;SDS011;15134;48.768;9.184;2023-11-21T02:02:48;872.80;;;763.78;;
27740;SDS011;15134;48.768;9.184;2023-11-21T02:05:14;870.35;;;760.75;;
27740;SDS011;15134;48.768;9.184;2023-11-21T02:07:44;870.40;;;759.65;;
27740;SDS011;15134;48.768;9.184;2023-11-21T02:10:10;874.00;;;765.40;;
27740;SDS011;15134;48.768;9.184;2023-11-21T02:12:44;871.63;;;760.50;;
27740;SDS011;15134;48.768;9.184;2023-11-21T02:15:10;871.37;;;762.50;;
27740;SDS011;15134;48.768;9.184;2023-11-21T02:17:45;871.08;;;760.45;;
27740;SDS011;15134;48.768;9.184;2023-11-21T02:20:19;867.80;;;751.27;;
27740;SDS011;15134;48.768;9.184;2023-11-21T02:22:53;865.67;;;744.67;;
27740;SDS011;15134;48.768;9.184;2023-11-21T02:25:32;865.97;;;745.83;;
27740;SDS011;15134;48.768;9.184;2023-11-21T02:28:01;864.05;;;740.95;;
27740;SDS011;15134;48.768;9.184;2023-11-21T02:30:29;867.28;;;749.17;;
27740;SDS011;15134;48.768;9.184;2023-11-21T02:32:57;870.88;;;755.05;;
27740;SDS011;15134;48.768;9.184;2023-11-21T02:35:24;869.15;;;753.75;;
27740;SDS011;15134;48.768;9.184;2023-11-21T02:37:54;866.85;;;745.25;;
27740;SDS011;15134;48.768;9.184;2023-11-21T02:40:20;866.97;;;747.60;;
27740;SDS011;15134;48.768;9.184;2023-11-21T02:42:48;868.70;;;750.23;;
27740;SDS011;15134;48.768;9.184;2023-11-21T02:45:19;868.35;;;748.67;;
27740;SDS011;15134;48.768;9.184;2023-11-21T02:47:50;867.10;;;747.90;;
27740;SDS011;15134;48.768;9.184;2023-11-21T02:50:15;868.90;;;751.05;;
27740;SDS011;15134;48.768;9.184;2023-11-21T02:52:44;867.90;;;752.45;;
27740;SDS011;15134;48.768;9.184;2023-11-21T02:55:11;867.00;;;749.87;;
27740;SDS011;15134;48.768;9.184;2023-11-21T02:57:36;869.63;;;754.87;;
27740;SDS011;15134;48.768;9.184;2023-11-21T03:00:02;866.87;;;747.73;;
27740;SDS011;15134;48.768;9.184;2023-11-21T03:02:28;866.90;;;749.85;;
27740;SDS011;15134;48.768;9.184;2023-11-21T03:04:54;866.65;;;750.88;;
27740;SDS011;15134;48.768;9.184;2023-11-21T03:07:20;868.13;;;750.65;;
27740;SDS011;15134;48.768;9.184;2023-11-21T03:09:46;871.40;;;759.33;;
27740;SDS011;15134;48.768;9.184;2023-11-21T03:12:12;871.93;;;762.83;;
27740;SDS011;15134;48.768;9.184;2023-11-21T03:14:41;869.13;;;757.05;;
27740;SDS011;15134;48.768;9.184;2023-11-21T03:17:07;872.60;;;762.30;;
27740;SDS011;15134;48.768;9.184;2023-11-21T03:19:33;870.60;;;758.55;;
27740;SDS011;15134;48.768;9.184;2023-11-21T03:21:58;872.50;;;764.05;;
27740;SDS011;15134;48.768;9.184;2023-11-21T03:24:24;873.15;;;765.95;;
27740;SDS011;15134;48.768;9.184;2023-11-21T03:26:51;869.88;;;757.00;;
27740;SDS011;15134;48.768;9.184;2023-11-21T03:29:18;872.47;;;756.25;;
27740;SDS011;15134;48.768;9.184;2023-11-21T03:31:43;872.03;;;762.22;;
27740;SDS011;15134;48.768;9.184;2023-11-21T03:34:11;870.63;;;759.80;;
27740;SDS011;15134;48.768;9.184;2023-11-21T03:36:41;871.95;;;763.03;;
27740;SDS011;15134;48.768;9.184;2023-11-21T03:39:07;874.77;;;765.27;;
27740;SDS011;15134;48.768;9.184;2023-11-21T03:41:32;869.23;;;754.50;;
27740;SDS011;15134;48.768;9.184;2023-11-21T03:43:59;878.67;;;763.70;;
27740;SDS011;15134;48.768;9.184;2023-11-21T03:46:25;878.60;;;761.47;;
27740;SDS011;15134;48.768;9.184;2023-11-21T03:48:51;874.08;;;765.88;;
27740;SDS011;15134;48.768;9.184;2023-11-21T03:51:16;873.28;;;764.85;;
27740;SDS011;15134;48.768;9.184;2023-11-21T03:53:42;872.58;;;761.00;;
27740;SDS011;15134;48.768;9.184;2023-11-21T03:56:09;872.57;;;763.73;;
27740;SDS011;15134;48.768;9.184;2023-11-21T03:58:34;875.25;;;764.13;;
27740;SDS011;15134;48.768;9.184;2023-11-21T04:01:00;870.30;;;756.97;;
27740;SDS011;15134;48.768;9.184;2023-11-21T04:03:26;874.60;;;765.88;;
27740;SDS011;15134;48.768;9.184;2023-11-21T04:05:52;871.20;;;757.88;;
27740;SDS011;15134;48.768;9.184;2023-11-21T04:08:18;874.37;;;769.63;;
27740;SDS011;15134;48.768;9.184;2023-11-21T04:10:43;872.97;;;766.23;;
27740;SDS011;15134;48.768;9.184;2023-11-21T04:13:09;870.85;;;764.17;;
27740;SDS011;15134;48.768;9.184;2023-11-21T04:15:35;871.60;;;761.00;;
27740;SDS011;15134;48.768;9.184;2023-11-21T04:18:01;874.33;;;768.55;;
27740;SDS011;15134;48.768;9.184;2023-11-21T04:20:27;877.00;;;775.08;;
27740;SDS011;15134;48.768;9.184;2023-11-21T04:22:53;879.28;;;774.63;;
27740;SDS011;15134;48.768;9.184;2023-11-21T04:25:19;874.63;;;765.45;;
27740;SDS011;15134;48.768;9.184;2023-11-21T04:27:45;875.38;;;772.80;;
27740;SDS011;15134;48.768;9.184;2023-11-21T04:30:11;871.65;;;764.17;;
27740;SDS011;15134;48.768;9.184;2023-11-21T04:32:38;870.63;;;761.08;;
27740;SDS011;15134;48.768;9.184;2023-11-21T04:35:04;870.58;;;757.08;;
27740;SDS011;15134;48.768;9.184;2023-11-21T04:37:30;869.25;;;761.78;;
27740;SDS011;15134;48.768;9.184;2023-11-21T04:39:56;867.27;;;755.67;;
27740;SDS011;15134;48.768;9.184;2023-11-21T04:42:22;870.73;;;759.57;;
27740;SDS011;15134;48.768;9.184;2023-11-21T04:44:48;872.20;;;761.03;;
27740;SDS011;15134;48.768;9.184;2023-11-21T04:47:14;871.37;;;757.10;;
27740;SDS011;15134;48.768;9.184;2023-11-21T04:49:43;870.45;;;755.20;;
27740;SDS011;15134;48.768;9.184;2023-11-21T04:52:12;870.25;;;756.83;;
27740;SDS011;15134;48.768;9.184;2023-11-21T04:54:37;870.72;;;757.95;;
27740;SDS011;15134;48.768;9.184;2023-11-21T04:57:05;872.45;;;761.50;;
27740;SDS011;15134;48.768;9.184;2023-11-21T04:59:32;868.38;;;750.85;;
27740;SDS011;15134;48.768;9.184;2023-11-21T05:01:59;868.10;;;749.78;;
27740;SDS011;15134;48.768;9.184;2023-11-21T05:04:25;868.90;;;752.45;;
27740;SDS011;15134;48.768;9.184;2023-11-21T05:06:52;869.08;;;753.95;;
27740;SDS011;15134;48.768;9.184;2023-11-21T05:09:17;868.25;;;753.40;;
27740;SDS011;15134;48.768;9.184;2023-11-21T05:11:43;869.33;;;751.80;;
27740;SDS011;15134;48.768;9.184;2023-11-21T05:14:09;868.05;;;753.75;;
27740;SDS011;15134;48.768;9.184;2023-11-21T05:16:35;867.20;;;749.78;;
27740;SDS011;15134;48.768;9.184;2023-11-21T05:19:01;880.42;;;761.42;;
27740;SDS011;15134;48.768;9.184;2023-11-21T05:21:27;870.97;;;756.30;;
27740;SDS011;15134;48.768;9.184;2023-11-21T05:23:54;867.92;;;754.40;;
27740;SDS011;15134;48.768;9.184;2023-11-21T05:26:20;873.97;;;765.17;;
27740;SDS011;15134;48.768;9.184;2023-11-21T05:28:46;874.57;;;762.97;;
27740;SDS011;15134;48.768;9.184;2023-11-21T05:31:13;870.70;;;755.80;;
27740;SDS011;15134;48.768;9.184;2023-11-21T05:33:38;872.13;;;761.10;;
27740;SDS011;15134;48.768;9.184;2023-11-21T05:36:04;870.33;;;758.83;;
27740;SDS011;15134;48.768;9.184;2023-11-21T05:38:33;871.92;;;763.63;;
27740;SDS011;15134;48.768;9.184;2023-11-21T05:40:59;872.22;;;763.20;;
27740;SDS011;15134;48.768;9.184;2023-11-21T05:43:24;869.27;;;755.93;;
27740;SDS011;15134;48.768;9.184;2023-11-21T05:45:50;871.80;;;764.27;;
27740;SDS011;15134;48.768;9.184;2023-11-21T05:48:16;869.47;;;757.10;;
27740;SDS011;15134;48.768;9.184;2023-11-21T05:50:42;872.42;;;760.70;;
27740;SDS011;15134;48.768;9.184;2023-11-21T05:53:08;871.47;;;761.90;;
27740;SDS011;15134;48.768;9.184;2023-11-21T05:55:36;873.17;;;757.95;;
27740;SDS011;15134;48.768;9.184;2023-11-21T05:58:02;873.53;;;763.63;;
27740;SDS011;15134;48.768;9.184;2023-11-21T06:00:28;873.72;;;764.03;;
27740;SDS011;15134;48.768;9.184;2023-11-21T06:02:53;873.30;;;763.97;;
27740;SDS011;15134;48.768;9.184;2023-11-21T06:05:20;874.58;;;763.78;;
27740;SDS011;15134;48.768;9.184;2023-11-21T06:07:48;872.72;;;763.92;;
27740;SDS011;15134;48.768;9.184;2023-11-21T06:10:15;869.83;;;762.33;;
27740;SDS011;15134;48.768;9.184;2023-11-21T06:12:42;871.33;;;760.65;;
27740;SDS011;15134;48.768;9.184;2023-11-21T06:15:09;871.27;;;753.93;;
27740;SDS011;15134;48.768;9.184;2023-11-21T06:17:38;867.90;;;751.67;;
27740;SDS011;15134;48.768;9.184;2023-11-21T06:20:08;868.10;;;751.53;;
27740;SDS011;15134;48.768;9.184;2023-11-21T06:22:42;871.25;;;756.38;;
27740;SDS011;15134;48.768;9.184;2023-11-21T06:25:08;871.22;;;763.83;;
27740;SDS011;15134;48.768;9.184;2023-11-21T06:27:37;870.53;;;759.38;;
27740;SDS011;15134;48.768;9.184;2023-11-21T06:30:04;867.88;;;756.90;;
27740;SDS011;15134;48.768;9.184;2023-11-21T06:32:32;870.90;;;763.03;;
27740;SDS011;15134;48.768;9.184;2023-11-21T06:34:58;871.20;;;762.60;;
27740;SDS011;15134;48.768;9.184;2023-11-21T06:37:27;870.55;;;758.78;;
27740;SDS011;15134;48.768;9.184;2023-11-21T06:39:54;876.35;;;763.05;;
27740;SDS011;15134;48.768;9.184;2023-11-21T06:42:20;869.72;;;757.08;;
27740;SDS011;15134;48.768;9.184;2023-11-21T06:44:46;872.20;;;766.50;;
27740;SDS011;15134;48.768;9.184;2023-11-21T06:47:13;870.00;;;758.85;;
27740;SDS011;15134;48.768;9.184;2023-11-21T06:49:39;870.80;;;759.65;;
27740;SDS011;15134;48.768;9.184;2023-11-21T06:52:05;868.20;;;754.57;;
27740;SDS011;15134;48.768;9.184;2023-11-21T06:54:31;874.90;;;761.10;;
27740;SDS011;15134;48.768;9.184;2023-11-21T06:56:57;872.50;;;756.72;;
27740;SDS011;15134;48.768;9.184;2023-11-21T06:59:23;869.72;;;751.85;;
27740;SDS011;15134;48.768;9.184;2023-11-21T07:01:50;866.63;;;749.80;;
27740;SDS011;15134;48.768;9.184;2023-11-21T07:04:15;868.45;;;756.40;;
27740;SDS011;15134;48.768;9.184;2023-11-21T07:06:41;869.58;;;760.97;;
27740;SDS011;15134;48.768;9.184;2023-11-21T07:09:08;870.03;;;757.35;;
27740;SDS011;15134;48.768;9.184;2023-11-21T07:11:36;871.80;;;762.17;;
27740;SDS011;15134;48.768;9.184;2023-11-21T07:14:04;869.30;;;760.83;;
27740;SDS011;15134;48.768;9.184;2023-11-21T07:16:36;872.03;;;761.37;;
27740;SDS011;15134;48.768;9.184;2023-11-21T07:19:06;871.67;;;762.83;;
27740;SDS011;15134;48.768;9.184;2023-11-21T07:21:35;871.07;;;760.90;;
27740;SDS011;15134;48.768;9.184;2023-11-21T07:24:04;870.13;;;760.80;;
27740;SDS011;15134;48.768;9.184;2023-11-21T07:26:31;869.65;;;760.55;;
27740;SDS011;15134;48.768;9.184;2023-11-21T07:28:58;869.17;;;760.53;;
27740;SDS011;15134;48.768;9.184;2023-11-21T07:31:24;869.38;;;763.80;;
27740;SDS011;15134;48.768;9.184;2023-11-21T07:33:50;872.67;;;765.83;;
27740;SDS011;15134;48.768;9.184;2023-11-21T07:36:16;868.88;;;758.08;;
27740;SDS011;15134;48.768;9.184;2023-11-21T07:38:46;873.20;;;765.40;;
27740;SDS011;15134;48.768;9.184;2023-11-21T07:41:12;874.78;;;762.13;;
27740;SDS011;15134;48.768;9.184;2023-11-21T07:43:41;870.83;;;761.13;;
27740;SDS011;15134;48.768;9.184;2023-11-21T07:46:07;871.58;;;766.63;;
27740;SDS011;15134;48.768;9.184;2023-11-21T07:48:33;870.47;;;763.13;;
27740;SDS011;15134;48.768;9.184;2023-11-21T07:51:00;871.67;;;761.08;;
27740;SDS011;15134;48.768;9.184;2023-11-21T07:53:28;875.00;;;764.83;;
27740;SDS011;15134;48.768;9.184;2023-11-21T07:55:58;875.38;;;764.88;;
27740;SDS011;15134;48.768;9.184;2023-11-21T07:58:27;872.15;;;765.20;;
27740;SDS011;15134;48.768;9.184;2023-11-21T08:00:53;869.53;;;758.15;;
27740;SDS011;15134;48.768;9.184;2023-11-21T08:03:19;870.45;;;763.00;;
27740;SDS011;15134;48.768;9.184;2023-11-21T08:05:46;872.75;;;767.38;;
27740;SDS011;15134;48.768;9.184;2023-11-21T08:08:12;870.85;;;761.83;;
27740;SDS011;15134;48.768;9.184;2023-11-21T08:10:38;870.45;;;765.00;;
27740;SDS011;15134;48.768;9.184;2023-11-21T08:13:07;873.47;;;768.20;;
27740;SDS011;15134;48.768;9.184;2023-11-21T08:15:34;870.83;;;764.07;;
27740;SDS011;15134;48.768;9.184;2023-11-21T08:18:02;871.90;;;762.58;;
27740;SDS011;15134;48.768;9.184;2023-11-21T08:20:27;874.92;;;769.30;;
27740;SDS011;15134;48.768;9.184;2023-11-21T08:22:54;874.17;;;773.75;;
27740;SDS011;15134;48.768;9.184;2023-11-21T08:25:21;872.90;;;770.05;;
27740;SDS011;15134;48.768;9.184;2023-11-21T08:27:47;873.87;;;767.97;;
27740;SDS011;15134;48.768;9.184;2023-11-21T08:30:13;875.50;;;772.80;;
27740;SDS011;15134;48.768;9.184;2023-11-21T08:32:42;877.08;;;776.70;;
27740;SDS011;15134;48.768;9.184;2023-11-21T08:35:07;874.30;;;773.67;;
27740;SDS011;15134;48.768;9.184;2023-11-21T08:37:34;879.15;;;781.55;;
27740;SDS011;15134;48.768;9.184;2023-11-21T08:40:02;877.77;;;777.27;;
27740;SDS011;15134;48.768;9.184;2023-11-21T08:42:32;877.10;;;778.63;;
27740;SDS011;15134;48.768;9.184;2023-11-21T08:44:58;876.90;;;775.97;;
27740;SDS011;15134;48.768;9.184;2023-11-21T08:47:24;875.83;;;773.73;;
27740;SDS011;15134;48.768;9.184;2023-11-21T08:49:51;876.38;;;774.92;;
27740;SDS011;15134;48.768;9.184;2023-11-21T08:52:20;878.97;;;780.63;;
27740;SDS011;15134;48.768;9.184;2023-11-21T08:54:51;877.25;;;774.05;;
27740;SDS011;15134;48.768;9.184;2023-11-21T08:57:24;877.53;;;775.83;;
27740;SDS011;15134;48.768;9.184;2023-11-21T08:59:50;878.42;;;779.33;;
27740;SDS011;15134;48.768;9.184;2023-11-21T09:02:20;878.55;;;780.75;;
27740;SDS011;15134;48.768;9.184;2023-11-21T09:04:48;888.88;;;790.92;;
27740;SDS011;15134;48.768;9.184;2023-11-21T09:07:15;885.92;;;788.03;;
27740;SDS011;15134;48.768;9.184;2023-11-21T09:09:41;890.40;;;791.73;;
27740;SDS011;15134;48.768;9.184;2023-11-21T09:12:07;895.83;;;797.33;;
27740;SDS011;15134;48.768;9.184;2023-11-21T09:14:37;900.08;;;801.50;;
27740;SDS011;15134;48.768;9.184;2023-11-21T09:17:04;901.08;;;802.35;;
27740;SDS011;15134;48.768;9.184;2023-11-21T09:19:39;895.77;;;797.33;;
27740;SDS011;15134;48.768;9.184;2023-11-21T09:22:15;899.13;;;800.72;;
27740;SDS011;15134;48.768;9.184;2023-11-21T09:24:41;907.42;;;808.65;;
27740;SDS011;15134;48.768;9.184;2023-11-21T09:27:07;907.10;;;808.17;;
27740;SDS011;15134;48.768;9.184;2023-11-21T09:29:34;907.95;;;809.15;;
27740;SDS011;15134;48.768;9.184;2023-11-21T09:32:01;915.90;;;816.78;;
27740;SDS011;15134;48.768;9.184;2023-11-21T09:34:28;915.28;;;816.20;;
27740;SDS011;15134;48.768;9.184;2023-11-21T09:36:54;910.50;;;811.60;;
27740;SDS011;15134;48.768;9.184;2023-11-21T09:39:19;911.23;;;812.33;;
27740;SDS011;15134;48.768;9.184;2023-11-21T09:41:49;909.00;;;810.13;;
27740;SDS011;15134;48.768;9.184;2023-11-21T09:44:20;913.45;;;814.35;;
27740;SDS011;15134;48.768;9.184;2023-11-21T09:46:59;909.15;;;810.25;;
27740;SDS011;15134;48.768;9.184;2023-11-21T09:49:25;915.38;;;816.15;;
27740;SDS011;15134;48.768;9.184;2023-11-21T09:51:53;902.95;;;804.25;;
27740;SDS011;15134;48.768;9.184;2023-11-21T09:54:21;900.90;;;802.67;;
27740;SDS011;15134;48.768;9.184;2023-11-21T09:56:47;900.58;;;802.28;;
27740;SDS011;15134;48.768;9.184;2023-11-21T09:59:15;895.55;;;797.33;;
27740;SDS011;15134;48.768;9.184;2023-11-21T10:01:41;903.30;;;804.55;;
27740;SDS011;15134;48.768;9.184;2023-11-21T10:04:08;895.33;;;797.13;;
27740;SDS011;15134;48.768;9.184;2023-11-21T10:06:39;904.42;;;805.75;;
27740;SDS011;15134;48.768;9.184;2023-11-21T10:09:09;894.67;;;796.45;;
27740;SDS011;15134;48.768;9.184;2023-11-21T10:11:38;900.03;;;801.45;;
27740;SDS011;15134;48.768;9.184;2023-11-21T10:14:06;900.60;;;802.22;;
27740;SDS011;15134;48.768;9.184;2023-11-21T10:16:35;904.70;;;806.20;;
27740;SDS011;15134;48.768;9.184;2023-11-21T10:19:04;898.38;;;800.13;;
27740;SDS011;15134;48.768;9.184;2023-11-21T10:21:34;900.28;;;801.83;;
27740;SDS011;15134;48.768;9.184;2023-11-21T10:24:00;903.60;;;805.03;;
27740;SDS011;15134;48.768;9.184;2023-11-21T10:26:29;894.38;;;796.30;;
27740;SDS011;15134;48.768;9.184;2023-11-21T10:28:57;899.85;;;801.50;;
27740;SDS011;15134;48.768;9.184;2023-11-21T10:31:29;898.50;;;800.22;;
27740;SDS011;15134;48.768;9.184;2023-11-21T10:34:11;902.00;;;803.58;;
27740;SDS011;15134;48.768;9.184;2023-11-21T10:36:40;894.38;;;796.30;;
27740;SDS011;15134;48.768;9.184;2023-11-21T10:39:06;894.00;;;795.88;;
27740;SDS011;15134;48.768;9.184;2023-11-21T10:41:33;898.33;;;799.75;;
27740;SDS011;15134;48.768;9.184;2023-11-21T10:44:00;890.50;;;792.33;;
27740;SDS011;15134;48.768;9.184;2023-11-21T10:46:29;892.45;;;794.38;;
27740;SDS011;15134;48.768;9.184;2023-11-21T10:48:55;898.15;;;799.85;;
27740;SDS011;15134;48.768;9.184;2023-11-21T10:51:21;889.83;;;791.87;;
27740;SDS011;15134;48.768;9.184;2023-11-21T10:53:49;897.47;;;798.73;;
27740;SDS011;15134;48.768;9.184;2023-11-21T10:56:18;894.45;;;796.17;;
27740;SDS011;15134;48.768;9.184;2023-11-21T10:58:47;899.13;;;800.55;;
27740;SDS011;15134;48.768;9.184;2023-11-21T11:01:15;895.33;;;797.08;;
27740;SDS011;15134;48.768;9.184;2023-11-21T11:03:43;887.30;;;789.40;;
27740;SDS011;15134;48.768;9.184;2023-11-21T11:06:10;900.55;;;802.08;;
27740;SDS011;15134;48.768;9.184;2023-11-21T11:08:37;886.40;;;788.50;;
27740;SDS011;15134;48.768;9.184;2023-11-21T11:11:06;892.08;;;793.75;;
27740;SDS011;15134;48.768;9.184;2023-11-21T11:13:32;893.92;;;795.72;;
27740;SDS011;15134;48.768;9.184;2023-11-21T11:15:59;900.35;;;801.85;;
27740;SDS011;15134;48.768;9.184;2023-11-21T11:18:30;904.67;;;806.08;;
27740;SDS011;15134;48.768;9.184;2023-11-21T11:21:07;906.30;;;807.80;;
27740;SDS011;15134;48.768;9.184;2023-11-21T11:26:48;909.53;;;810.70;;
27740;SDS011;15134;48.768;9.184;2023-11-21T11:32:10;915.13;;;816.13;;
27740;SDS011;15134;48.768;9.184;2023-11-21T11:34:53;911.33;;;812.53;;
27740;SDS011;15134;48.768;9.184;2023-11-21T11:37:25;912.38;;;813.60;;
27740;SDS011;15134;48.768;9.184;2023-11-21T11:39:51;908.13;;;809.40;;
27740;SDS011;15134;48.768;9.184;2023-11-21T11:42:19;910.22;;;811.47;;
27740;SDS011;15134;48.768;9.184;2023-11-21T11:44:48;908.35;;;809.67;;
27740;SDS011;15134;48.768;9.184;2023-11-21T11:47:22;906.78;;;807.63;;
27740;SDS011;15134;48.768;9.184;2023-11-21T11:49:58;908.08;;;809.03;;
27740;SDS011;15134;48.768;9.184;2023-11-21T11:52:46;911.30;;;812.53;;
27740;SDS011;15134;48.768;9.184;2023-11-21T11:55:14;911.33;;;812.42;;
27740;SDS011;15134;48.768;9.184;2023-11-21T11:57:43;918.72;;;818.97;;
27740;SDS011;15134;48.768;9.184;2023-11-21T12:00:21;910.78;;;811.92;;
27740;SDS011;15134;48.768;9.184;2023-11-21T12:02:56;914.50;;;815.45;;
27740;SDS011;15134;48.768;9.184;2023-11-21T12:05:24;910.22;;;811.53;;
27740;SDS011;15134;48.768;9.184;2023-11-21T12:07:53;914.65;;;815.78;;
27740;SDS011;15134;48.768;9.184;2023-11-21T12:10:23;914.63;;;815.67;;
27740;SDS011;15134;48.768;9.184;2023-11-21T12:12:51;921.90;;;822.28;;
27740;SDS011;15134;48.768;9.184;2023-11-21T12:15:18;920.50;;;821.42;;
27740;SDS011;15134;48.768;9.184;2023-11-21T12:17:45;915.78;;;816.65;;
27740;SDS011;15134;48.768;9.184;2023-11-21T12:20:15;920.90;;;821.50;;
27740;SDS011;15134;48.768;9.184;2023-11-21T12:22:44;908.72;;;810.15;;
27740;SDS011;15134;48.768;9.184;2023-11-21T12:25:17;912.28;;;813.10;;
27740;SDS011;15134;48.768;9.184;2023-11-21T12:27:51;892.05;;;794.00;;
27740;SDS011;15134;48.768;9.184;2023-11-21T12:30:18;886.67;;;788.80;;
27740;SDS011;15134;48.768;9.184;2023-11-21T12:32:47;874.25;;;773.40;;
27740;SDS011;15134;48.768;9.184;2023-11-21T12:35:14;870.80;;;761.53;;
27740;SDS011;15134;48.768;9.184;2023-11-21T12:37:41;863.28;;;741.00;;
27740;SDS011;15134;48.768;9.184;2023-11-21T12:40:10;865.17;;;743.77;;
27740;SDS011;15134;48.768;9.184;2023-11-21T12:42:43;869.97;;;755.85;;
27740;SDS011;15134;48.768;9.184;2023-11-21T12:47:43;866.10;;;746.85;;
27740;SDS011;15134;48.768;9.184;2023-11-21T12:50:13;863.75;;;741.90;;
27740;SDS011;15134;48.768;9.184;2023-11-21T12:52:42;865.92;;;750.03;;
27740;SDS011;15134;48.768;9.184;2023-11-21T12:55:17;862.78;;;743.65;;
27740;SDS011;15134;48.768;9.184;2023-11-21T12:57:49;872.53;;;764.58;;
27740;SDS011;15134;48.768;9.184;2023-11-21T13:00:20;873.63;;;756.88;;
27740;SDS011;15134;48.768;9.184;2023-11-21T13:02:54;874.15;;;767.97;;
27740;SDS011;15134;48.768;9.184;2023-11-21T13:05:41;869.53;;;760.17;;
27740;SDS011;15134;48.768;9.184;2023-11-21T13:08:10;874.85;;;773.70;;
27740;SDS011;15134;48.768;9.184;2023-11-21T13:10:44;875.55;;;773.53;;
27740;SDS011;15134;48.768;9.184;2023-11-21T13:13:12;878.80;;;778.45;;
27740;SDS011;15134;48.768;9.184;2023-11-21T13:15:49;879.20;;;781.53;;
27740;SDS011;15134;48.768;9.184;2023-11-21T13:18:16;885.17;;;785.40;;
27740;SDS011;15134;48.768;9.184;2023-11-21T13:20:42;879.05;;;781.28;;
27740;SDS011;15134;48.768;9.184;2023-11-21T13:23:09;882.50;;;784.78;;
27740;SDS011;15134;48.768;9.184;2023-11-21T13:25:39;870.20;;;764.72;;
27740;SDS011;15134;48.768;9.184;2023-11-21T13:28:07;870.35;;;764.25;;
27740;SDS011;15134;48.768;9.184;2023-11-21T13:30:37;869.65;;;760.25;;
27740;SDS011;15134;48.768;9.184;2023-11-21T13:33:05;869.50;;;760.35;;
27740;SDS011;15134;48.768;9.184;2023-11-21T13:35:39;867.53;;;751.22;;
27740;SDS011;15134;48.768;9.184;2023-11-21T13:38:12;868.58;;;757.95;;
27740;SDS011;15134;48.768;9.184;2023-11-21T13:40:40;870.83;;;758.70;;
27740;SDS011;15134;48.768;9.184;2023-11-21T13:43:12;873.58;;;762.40;;
27740;SDS011;15134;48.768;9.184;2023-11-21T13:45:42;873.88;;;764.80;;
27740;SDS011;15134;48.768;9.184;2023-11-21T13:48:09;875.80;;;769.03;;
27740;SDS011;15134;48.768;9.184;2023-11-21T13:50:42;873.53;;;763.13;;
27740;SDS011;15134;48.768;9.184;2023-11-21T13:53:14;872.90;;;765.28;;
27740;SDS011;15134;48.768;9.184;2023-11-21T13:55:49;871.33;;;763.83;;
27740;SDS011;15134;48.768;9.184;2023-11-21T13:58:16;872.00;;;764.72;;
27740;SDS011;15134;48.768;9.184;2023-11-21T14:00:50;876.08;;;769.70;;
27740;SDS011;15134;48.768;9.184;2023-11-21T14:03:31;878.92;;;777.05;;
27740;SDS011;15134;48.768;9.184;2023-11-21T14:06:09;878.15;;;773.40;;
27740;SDS011;15134;48.768;9.184;2023-11-21T14:08:40;876.92;;;774.70;;